createdAt,value
2018-08-14T07:29:53.515Z,2.50
2018-08-14T07:32:22.372Z,2.50
2018-08-14T07:34:51.400Z,2.20
2018-08-14T07:37:20.552Z,2.00
2018-08-14T07:39:49.586Z,1.98
2018-08-14T07:42:18.540Z,2.17
2018-08-14T07:44:47.527Z,2.22
2018-08-14T07:47:16.313Z,1.95
2018-08-14T07:49:45.468Z,2.05
2018-08-14T07:52:14.310Z,2.17
2018-08-14T07:54:43.425Z,2.10
2018-08-14T07:57:12.626Z,1.87
2018-08-14T07:59:41.745Z,2.25
2018-08-14T08:02:10.757Z,1.72
2018-08-14T08:04:40.228Z,1.82
2018-08-14T08:07:09.108Z,1.37
2018-08-14T08:09:38.235Z,1.60
2018-08-14T08:12:07.425Z,1.80
2018-08-14T08:14:36.394Z,1.70
2018-08-14T08:17:05.357Z,1.87
2018-08-14T08:19:34.377Z,1.67
2018-08-14T08:22:03.671Z,1.92
2018-08-14T08:24:32.567Z,1.47
2018-08-14T08:27:01.670Z,1.62
2018-08-14T08:29:30.648Z,1.57
2018-08-14T08:31:59.598Z,1.57
2018-08-14T08:34:28.891Z,2.00
2018-08-14T08:36:57.989Z,2.00
2018-08-14T08:39:26.880Z,1.80
2018-08-14T08:41:55.977Z,1.92
2018-08-14T08:44:24.981Z,1.65
2018-08-14T08:46:54.032Z,2.00
2018-08-14T08:49:22.785Z,1.47
2018-08-14T08:51:51.573Z,2.00
2018-08-14T08:54:20.531Z,1.60
2018-08-14T08:56:49.311Z,2.20
2018-08-14T08:59:18.583Z,2.05
2018-08-14T09:01:47.506Z,1.67
2018-08-14T09:04:16.713Z,1.75
2018-08-14T09:06:45.587Z,1.32
2018-08-14T09:09:14.861Z,1.80
2018-08-14T09:11:44.082Z,1.50
2018-08-14T09:14:13.115Z,1.40
2018-08-14T09:16:42.193Z,2.17
2018-08-14T09:19:11.247Z,1.62
2018-08-14T09:21:40.064Z,1.72
2018-08-14T09:24:09.193Z,1.37
2018-08-14T09:26:38.067Z,1.50
2018-08-14T09:29:06.873Z,1.70
2018-08-14T09:31:35.996Z,1.50
2018-08-14T09:34:05.025Z,1.62
2018-08-14T09:36:34.111Z,1.60
2018-08-14T09:39:03.605Z,1.60
2018-08-14T09:41:32.686Z,1.67
2018-08-14T09:44:01.735Z,1.70
2018-08-14T09:46:30.930Z,1.45
2018-08-14T09:48:59.899Z,1.35
2018-08-14T09:51:29.278Z,1.50
2018-08-14T09:53:58.700Z,1.60
2018-08-14T09:56:27.828Z,1.87
2018-08-14T09:58:57.006Z,1.52
2018-08-14T10:01:30.232Z,1.35
2018-08-14T10:03:59.396Z,1.50
2018-08-14T10:06:33.816Z,1.30
2018-08-14T10:09:02.941Z,1.92
2018-08-14T10:11:32.238Z,1.60
2018-08-14T10:14:01.172Z,1.35
2018-08-14T10:16:30.251Z,1.37
2018-08-14T10:18:59.273Z,0.80
2018-08-14T10:21:28.356Z,1.35
2018-08-14T10:23:57.416Z,1.80
2018-08-14T10:26:26.317Z,2.08
2018-08-14T10:28:55.628Z,1.80
2018-08-14T10:31:24.679Z,1.50
2018-08-14T10:33:53.950Z,1.60
2018-08-14T10:36:23.301Z,1.62
2018-08-14T10:38:52.448Z,1.50
2018-08-14T10:41:22.358Z,1.57
2018-08-14T10:43:51.444Z,1.50
2018-08-14T10:46:20.684Z,1.57
2018-08-14T10:48:50.098Z,1.62
2018-08-14T10:51:19.162Z,1.72
2018-08-14T10:53:48.183Z,1.57
2018-08-14T10:56:17.282Z,1.70
2018-08-14T10:58:46.270Z,1.47
2018-08-14T11:01:15.298Z,1.57
2018-08-14T11:03:44.320Z,1.37
2018-08-14T11:06:13.521Z,1.50
2018-08-14T11:08:42.825Z,1.40
2018-08-14T11:11:17.241Z,1.72
2018-08-14T11:13:46.117Z,1.42
2018-08-14T11:16:15.078Z,1.70
2018-08-14T11:18:44.041Z,1.20
2018-08-14T11:21:12.971Z,1.50
2018-08-14T11:23:41.826Z,1.70
2018-08-14T11:26:10.673Z,1.57
2018-08-14T11:28:39.664Z,1.62
2018-08-14T11:31:08.493Z,1.30
2018-08-14T11:33:37.409Z,1.98
2018-08-14T11:36:07.281Z,1.77
2018-08-14T11:38:36.891Z,1.87
2018-08-14T11:41:06.341Z,1.50
2018-08-14T11:43:35.278Z,1.00
2018-08-14T11:46:04.238Z,1.65
2018-08-14T11:48:33.547Z,1.55
2018-08-14T11:51:02.626Z,1.32
2018-08-14T11:53:31.488Z,1.17
2018-08-14T11:56:00.922Z,1.47
2018-08-14T11:58:29.734Z,1.30
2018-08-14T12:00:58.659Z,1.52
2018-08-14T12:03:28.726Z,1.42
2018-08-14T12:05:57.584Z,1.35
2018-08-14T12:08:26.636Z,1.37
2018-08-14T12:10:55.451Z,1.00
2018-08-14T12:13:24.291Z,1.10
2018-08-14T12:15:53.185Z,1.10
2018-08-14T12:18:22.116Z,1.25
2018-08-14T12:20:50.916Z,1.02
2018-08-14T12:23:19.808Z,1.25
2018-08-14T12:25:49.026Z,1.27
2018-08-14T12:28:17.974Z,1.05
2018-08-14T12:30:46.852Z,1.27
2018-08-14T12:33:15.703Z,0.90
2018-08-14T12:35:44.559Z,1.30
2018-08-14T12:38:13.628Z,0.88
2018-08-14T12:40:42.475Z,1.15
2018-08-14T12:43:11.334Z,1.00
2018-08-14T12:45:40.209Z,0.95
2018-08-14T12:48:09.221Z,1.22
2018-08-14T12:50:38.081Z,1.70
2018-08-14T12:53:07.089Z,1.32
2018-08-14T12:55:36.079Z,1.42
2018-08-14T12:58:05.065Z,1.00
2018-08-14T13:00:33.965Z,1.30
2018-08-14T13:03:02.950Z,1.20
2018-08-14T13:05:31.850Z,1.05
2018-08-14T13:08:00.655Z,1.00
2018-08-14T13:10:29.490Z,1.00
2018-08-14T13:12:58.347Z,0.90
2018-08-14T13:15:27.210Z,1.00
2018-08-14T13:18:10.599Z,1.00
2018-08-14T13:20:39.623Z,1.10
2018-08-14T13:23:11.176Z,1.22
2018-08-14T13:25:40.041Z,0.75
2018-08-14T13:28:09.589Z,0.90
2018-08-14T13:30:38.769Z,1.07
2018-08-14T13:33:07.700Z,0.80
2018-08-14T13:35:36.580Z,0.85
2018-08-14T13:38:05.424Z,0.75
2018-08-14T13:40:34.448Z,0.90
2018-08-14T13:43:03.355Z,1.07
2018-08-14T13:45:33.235Z,0.93
2018-08-14T13:48:02.205Z,0.93
2018-08-14T13:50:31.020Z,0.80
2018-08-14T13:52:59.854Z,0.93
2018-08-14T13:55:28.747Z,0.90
2018-08-14T13:57:57.729Z,0.72
2018-08-14T14:00:28.139Z,0.88
2018-08-14T14:02:57.131Z,0.70
2018-08-14T14:05:26.137Z,0.60
2018-08-14T14:07:55.076Z,0.70
2018-08-14T14:10:24.049Z,0.78
2018-08-14T14:12:52.884Z,0.70
2018-08-14T14:15:25.870Z,0.60
2018-08-14T14:17:55.623Z,0.75
2018-08-14T14:20:26.450Z,1.35
2018-08-14T14:22:55.387Z,0.93
2018-08-14T14:25:24.405Z,0.70
2018-08-14T14:27:53.294Z,0.70
2018-08-14T14:30:22.177Z,0.50
2018-08-14T14:32:51.094Z,0.72
2018-08-14T14:35:20.049Z,0.50
2018-08-14T14:37:49.044Z,0.88
2018-08-14T14:40:21.454Z,0.70
2018-08-14T14:42:51.370Z,0.78
2018-08-14T14:45:20.255Z,0.70
2018-08-14T14:47:49.144Z,0.60
2018-08-14T14:50:18.069Z,0.80
2018-08-14T14:52:47.084Z,0.70
2018-08-14T14:55:18.834Z,0.47
2018-08-14T14:57:47.923Z,0.70
2018-08-14T15:00:26.900Z,1.60
2018-08-14T15:02:59.809Z,0.93
2018-08-14T15:05:29.099Z,0.60
2018-08-14T15:07:57.938Z,0.82
2018-08-14T15:10:26.903Z,0.68
2018-08-14T15:12:55.871Z,0.80
2018-08-14T15:15:29.021Z,0.68
2018-08-14T15:17:57.955Z,0.70
2018-08-14T15:20:27.806Z,0.60
2018-08-14T15:22:58.611Z,0.80
2018-08-14T15:25:28.230Z,0.75
2018-08-14T15:29:17.335Z,1.30
2018-08-14T15:31:52.506Z,1.25
2018-08-14T15:34:26.774Z,1.22
2018-08-14T15:36:59.307Z,1.40
2018-08-14T15:39:29.179Z,1.98
2018-08-14T15:41:59.327Z,1.47
2018-08-14T15:44:28.237Z,1.80
2018-08-14T15:46:57.488Z,1.55
2018-08-14T15:49:26.580Z,1.57
2018-08-14T15:51:55.480Z,2.08
2018-08-14T15:54:24.423Z,2.17
2018-08-14T15:56:53.448Z,2.12
2018-08-14T15:59:22.485Z,2.10
2018-08-14T16:01:51.449Z,2.00
2018-08-14T16:04:20.681Z,2.42
2018-08-14T16:06:49.656Z,2.47
2018-08-14T16:09:21.616Z,2.08
2018-08-14T16:11:51.075Z,2.50
2018-08-14T16:14:20.081Z,2.50
2018-08-14T16:16:49.284Z,2.45
2018-08-14T16:19:18.625Z,2.08
2018-08-14T16:21:47.591Z,1.98
2018-08-14T16:24:17.879Z,2.00
2018-08-14T16:26:46.849Z,2.08
2018-08-14T16:29:15.836Z,1.85
2018-08-14T16:31:44.759Z,1.92
2018-08-14T16:34:13.824Z,1.70
2018-08-14T16:36:42.854Z,2.00
2018-08-14T16:39:13.007Z,2.83
2018-08-14T16:41:42.152Z,2.80
2018-08-14T16:44:11.916Z,2.95
2018-08-14T16:46:41.758Z,2.77
2018-08-14T16:49:10.585Z,2.80
2018-08-14T16:51:39.984Z,2.98
2018-08-14T16:54:08.826Z,2.60
2018-08-14T16:56:38.039Z,2.77
2018-08-14T16:59:07.028Z,2.20
2018-08-14T17:01:36.047Z,2.40
2018-08-14T17:04:05.312Z,2.72
2018-08-14T17:06:34.147Z,2.20
2018-08-14T17:09:02.997Z,2.00
2018-08-14T17:11:31.839Z,2.00
2018-08-14T17:14:00.603Z,2.52
2018-08-14T17:16:29.714Z,2.22
2018-08-14T17:18:58.638Z,2.15
2018-08-14T17:21:26.092Z,1.87
2018-08-14T17:23:54.919Z,1.90
2018-08-14T17:26:23.851Z,2.10
2018-08-14T17:28:52.728Z,1.62
2018-08-14T17:31:21.664Z,2.10
2018-08-14T17:33:50.505Z,1.92
2018-08-14T17:36:19.877Z,1.80
2018-08-14T17:38:48.737Z,1.92
2018-08-14T17:41:17.587Z,1.62
2018-08-14T17:43:46.436Z,1.45
2018-08-14T17:46:15.320Z,1.67
2018-08-14T17:48:44.318Z,2.00
2018-08-14T17:51:13.326Z,1.60
2018-08-14T17:53:42.189Z,1.90
2018-08-14T17:56:11.056Z,1.42
2018-08-14T17:58:39.881Z,1.30
2018-08-14T18:01:09.224Z,1.60
2018-08-14T18:03:37.985Z,1.22
2018-08-14T18:06:07.001Z,1.60
2018-08-14T18:08:36.085Z,1.35
2018-08-14T18:11:04.951Z,1.42
2018-08-14T18:13:33.791Z,1.30
2018-08-14T18:16:02.611Z,1.40
2018-08-14T18:18:31.507Z,1.47
2018-08-14T18:21:00.399Z,1.65
2018-08-14T18:23:29.304Z,1.27
2018-08-14T18:25:58.173Z,1.25
2018-08-14T18:28:27.369Z,1.50
2018-08-14T18:30:56.207Z,1.25
2018-08-14T18:33:25.144Z,1.30
2018-08-14T18:35:53.979Z,1.42
2018-08-14T18:38:22.756Z,1.20
2018-08-14T18:40:51.643Z,1.27
2018-08-14T18:43:20.835Z,1.20
2018-08-14T18:45:49.743Z,1.30
2018-08-14T18:48:18.717Z,1.20
2018-08-14T18:50:47.587Z,1.02
2018-08-14T18:53:16.469Z,1.42
2018-08-14T18:55:45.262Z,1.40
2018-08-14T18:58:14.167Z,1.10
2018-08-14T19:00:42.993Z,1.32
2018-08-14T19:03:11.909Z,1.42
2018-08-14T19:05:41.155Z,1.30
2018-08-14T19:08:10.137Z,1.60
2018-08-14T19:10:39.130Z,1.40
2018-08-14T19:13:08.237Z,1.50
2018-08-14T19:15:38.461Z,1.57
2018-08-14T19:18:08.979Z,1.47
2018-08-14T19:20:38.154Z,1.22
2018-08-14T19:23:07.352Z,1.30
2018-08-14T19:25:36.438Z,1.20
2018-08-14T19:28:05.473Z,1.32
2018-08-14T19:30:34.260Z,1.27
2018-08-14T19:33:03.227Z,1.20
2018-08-14T19:35:32.073Z,1.20
2018-08-14T19:38:01.048Z,1.50
2018-08-14T19:40:29.931Z,1.45
2018-08-14T19:42:58.821Z,1.30
2018-08-14T19:45:27.587Z,1.30
2018-08-14T19:47:56.501Z,1.15
2018-08-14T19:50:25.346Z,1.22
2018-08-14T19:52:54.240Z,1.32
2018-08-14T19:55:23.121Z,1.12
2018-08-14T19:57:52.446Z,1.05
2018-08-14T20:00:22.273Z,1.20
2018-08-14T20:02:51.513Z,1.22
2018-08-14T20:05:20.398Z,1.32
2018-08-14T20:07:49.653Z,1.22
2018-08-14T20:10:18.795Z,1.00
2018-08-14T20:12:47.713Z,0.98
2018-08-14T20:15:17.774Z,1.05
2018-08-14T20:17:46.593Z,1.10
2018-08-14T20:20:17.429Z,1.00
2018-08-14T20:22:46.575Z,0.80
2018-08-14T20:25:15.450Z,1.10
2018-08-14T20:27:44.369Z,0.88
2018-08-14T20:30:15.507Z,0.90
2018-08-14T20:32:44.403Z,0.82
2018-08-14T20:35:14.937Z,0.90
2018-08-14T20:37:44.688Z,0.60
2018-08-14T20:40:16.125Z,1.00
2018-08-14T20:42:44.992Z,0.85
2018-08-14T20:45:14.522Z,0.93
2018-08-14T20:47:43.798Z,0.90
2018-08-14T20:50:15.788Z,0.80
2018-08-14T20:52:45.264Z,0.98
2018-08-14T20:55:14.658Z,0.70
2018-08-14T20:57:43.986Z,0.80
2018-08-14T21:00:17.699Z,0.90
2018-08-14T21:02:46.656Z,1.02
2018-08-14T21:05:15.569Z,0.70
2018-08-14T21:07:45.581Z,0.90
2018-08-14T21:10:14.616Z,0.70
2018-08-14T21:12:44.171Z,0.65
2018-08-14T21:15:15.268Z,1.10
2018-08-14T21:17:45.261Z,0.75
2018-08-14T21:20:16.929Z,0.70
2018-08-14T21:22:46.641Z,0.98
2018-08-14T21:25:15.816Z,0.40
2018-08-14T21:27:44.932Z,0.80
2018-08-14T21:30:15.365Z,0.65
2018-08-14T21:32:44.547Z,0.65
2018-08-14T21:35:15.825Z,0.70
2018-08-14T21:37:44.967Z,0.60
2018-08-14T21:40:15.758Z,0.70
2018-08-14T21:42:46.847Z,0.80
2018-08-14T21:45:17.106Z,0.62
2018-08-14T21:47:46.371Z,0.55
2018-08-14T21:50:15.275Z,0.75
2018-08-14T21:52:44.187Z,0.68
2018-08-14T21:55:13.976Z,0.70
2018-08-14T21:57:43.701Z,0.53
2018-08-14T22:00:18.504Z,0.70
2018-08-14T22:02:47.672Z,0.70
2018-08-14T22:05:17.488Z,0.57
2018-08-14T22:07:46.838Z,0.50
2018-08-14T22:10:19.318Z,0.50
2018-08-14T22:12:48.263Z,0.90
2018-08-14T22:15:17.152Z,0.60
2018-08-14T22:17:46.066Z,0.80
2018-08-14T22:20:15.999Z,0.90
2018-08-14T22:22:45.187Z,0.70
2018-08-14T22:25:14.098Z,0.60
2018-08-14T22:27:42.956Z,0.68
2018-08-14T22:30:13.436Z,0.70
2018-08-14T22:32:42.567Z,0.68
2018-08-14T22:35:11.393Z,0.60
2018-08-14T22:37:40.256Z,0.62
2018-08-14T22:40:09.187Z,0.50
2018-08-14T22:42:38.164Z,0.78
2018-08-14T22:45:08.517Z,0.62
2018-08-14T22:47:37.667Z,0.85
2018-08-14T22:50:07.012Z,0.47
2018-08-14T22:52:35.846Z,0.60
2018-08-14T22:55:05.353Z,0.82
2018-08-14T22:57:34.187Z,0.50
2018-08-14T23:00:03.088Z,0.82
2018-08-14T23:02:31.989Z,0.70
2018-08-14T23:05:00.858Z,0.70
2018-08-14T23:07:29.608Z,0.70
2018-08-14T23:09:58.455Z,0.28
2018-08-14T23:12:27.253Z,0.45
2018-08-14T23:14:56.155Z,0.40
2018-08-14T23:17:24.895Z,0.70
2018-08-14T23:19:53.748Z,0.50
2018-08-14T23:22:22.487Z,0.50
2018-08-14T23:24:51.299Z,0.55
2018-08-14T23:27:20.146Z,0.53
2018-08-14T23:29:48.944Z,0.30
2018-08-14T23:32:17.749Z,0.60
2018-08-14T23:34:46.515Z,0.70
2018-08-14T23:37:15.406Z,0.30
2018-08-14T23:39:44.203Z,0.60
2018-08-14T23:42:13.078Z,0.62
2018-08-14T23:44:41.893Z,0.57
2018-08-14T23:47:10.944Z,0.42
2018-08-14T23:49:40.447Z,0.60
2018-08-14T23:52:09.306Z,0.45
2018-08-14T23:54:38.186Z,0.50
2018-08-14T23:57:06.957Z,0.57
2018-08-14T23:59:35.871Z,0.53
